Time;durP1;ratioP1;P1;durP2;ratioP2;P2;SDS_P1;SDS_P2;PMS_P1;PMS_P2;Temp;Humidity;BMP_temperature;BMP_pressure;BME280_temperature;BME280_humidity;BME280_pressure;Samples;Min_cycle;Max_cycle;Signal;HPM_P1;HPM_P2
2023/06/10 00:01:06;;;;;;;14.10;9.38;;;;;;;-145.01;100.00;64805.59;5096080;28;20044;-62
2023/06/10 00:03:36;;;;;;;16.23;9.75;;;;;;;-145.01;100.00;64805.59;5099021;28;20044;-62
2023/06/10 00:06:03;;;;;;;14.43;9.50;;;;;;;-145.01;100.00;64805.59;5109204;28;20051;-64
2023/06/10 00:08:31;;;;;;;15.55;9.32;;;;;;;-145.01;100.00;64805.59;5099898;28;20135;-65
2023/06/10 00:10:58;;;;;;;17.27;11.65;;;;;;;-145.01;100.00;64805.59;5103053;28;20050;-64
2023/06/10 00:13:26;;;;;;;14.63;10.95;;;;;;;-145.01;100.00;64805.59;5099111;28;20040;-65
2023/06/10 00:15:53;;;;;;;16.60;12.52;;;;;;;-145.01;100.00;64805.59;5104585;28;20044;-62
2023/06/10 00:18:22;;;;;;;20.77;11.13;;;;;;;-145.01;100.00;64805.59;5108794;28;20079;-65
2023/06/10 00:20:52;;;;;;;16.42;11.25;;;;;;;-145.01;100.00;64805.59;5097065;28;20043;-64
2023/06/10 00:23:20;;;;;;;16.27;11.18;;;;;;;-145.01;100.00;64805.59;5100445;28;20044;-64
2023/06/10 00:25:48;;;;;;;17.30;11.63;;;;;;;-145.01;100.00;64805.59;5103070;28;20101;-64
2023/06/10 00:28:15;;;;;;;15.75;11.73;;;;;;;-145.01;100.00;64805.59;5102063;28;20051;-64
2023/06/10 00:30:43;;;;;;;15.02;11.60;;;;;;;-145.01;100.00;64805.59;5101682;28;20051;-64
2023/06/10 00:33:11;;;;;;;19.48;12.07;;;;;;;-145.01;100.00;64805.59;5100378;28;20044;-64
2023/06/10 00:35:38;;;;;;;15.63;11.00;;;;;;;-145.01;100.00;64805.59;5097185;28;20039;-64
2023/06/10 00:38:07;;;;;;;17.08;11.52;;;;;;;-145.01;100.00;64805.59;5098717;28;20052;-64
2023/06/10 00:40:35;;;;;;;28.60;15.43;;;;;;;-145.01;100.00;64805.59;5100509;28;20040;-64
2023/06/10 00:43:02;;;;;;;19.35;13.98;;;;;;;-145.01;100.00;64805.59;5101613;28;20055;-64
2023/06/10 00:45:30;;;;;;;20.10;13.82;;;;;;;-145.01;100.00;64805.59;5098416;28;20123;-64
2023/06/10 00:47:59;;;;;;;18.80;12.77;;;;;;;-145.01;100.00;64805.59;5099500;28;20036;-65
2023/06/10 00:50:26;;;;;;;15.43;12.13;;;;;;;-145.01;100.00;64805.59;5091771;28;20040;-64
2023/06/10 00:52:54;;;;;;;22.70;12.27;;;;;;;-145.01;100.00;64805.59;5102103;28;20539;-64
2023/06/10 00:55:24;;;;;;;19.48;11.52;;;;;;;-145.01;100.00;64805.59;5095500;28;20545;-64
2023/06/10 00:57:51;;;;;;;;;;;;;;;-145.01;100.00;64805.59;5108225;28;20044;-64
2023/06/10 01:00:20;;;;;;;19.50;11.85;;;;;;;-145.01;100.00;64805.59;5100348;28;20316;-64
2023/06/10 01:02:49;;;;;;;15.77;10.90;;;;;;;-145.01;100.00;64805.59;5098419;28;20039;-64
2023/06/10 01:05:16;;;;;;;18.27;11.65;;;;;;;-145.01;100.00;64805.59;5096233;28;20423;-64
2023/06/10 01:07:47;;;;;;;16.13;10.75;;;;;;;-145.01;100.00;64805.59;5107242;28;20133;-64
2023/06/10 01:10:17;;;;;;;16.02;12.40;;;;;;;-145.01;100.00;64805.59;5103063;28;20039;-64
2023/06/10 01:12:48;;;;;;;18.80;12.13;;;;;;;-145.01;100.00;64805.59;5097433;28;20054;-64
2023/06/10 01:15:16;;;;;;;16.73;13.63;;;;;;;-145.01;100.00;64805.59;5098306;28;20146;-65
2023/06/10 01:18:08;;;;;;;18.95;12.70;;;;;;;-145.01;100.00;64805.59;5101180;28;20042;-64
2023/06/10 01:20:36;;;;;;;24.58;13.23;;;;;;;-145.01;100.00;64805.59;5091476;28;20048;-64
2023/06/10 01:23:05;;;;;;;17.45;13.05;;;;;;;-145.01;100.00;64805.59;5099848;28;20576;-64
2023/06/10 01:25:36;;;;;;;14.70;11.45;;;;;;;-145.01;100.00;64805.59;5096005;28;20394;-64
2023/06/10 01:28:05;;;;;;;17.52;11.77;;;;;;;-145.01;100.00;64805.59;5101108;28;20047;-64
2023/06/10 01:30:38;;;;;;;15.90;12.15;;;;;;;-145.01;100.00;64805.59;5102127;28;20456;-64
2023/06/10 01:33:07;;;;;;;16.00;11.07;;;;;;;-145.01;100.00;64805.59;5100693;28;20047;-64
2023/06/10 01:35:35;;;;;;;18.15;12.57;;;;;;;-145.01;100.00;64805.59;5091678;28;20071;-64
2023/06/10 01:38:02;;;;;;;15.80;12.07;;;;;;;-145.01;100.00;64805.59;5104694;28;20054;-64
2023/06/10 01:40:31;;;;;;;18.00;11.80;;;;;;;-145.01;100.00;64805.59;5103450;28;20060;-64
2023/06/10 01:42:59;;;;;;;15.30;11.35;;;;;;;-145.01;100.00;64805.59;5106322;28;20085;-64
2023/06/10 01:45:26;;;;;;;20.88;13.13;;;;;;;-145.01;100.00;64805.59;5095324;28;20124;-64
2023/06/10 01:47:54;;;;;;;19.65;12.27;;;;;;;-145.01;100.00;64805.59;5106375;28;20040;-64
2023/06/10 01:50:21;;;;;;;16.55;11.95;;;;;;;-145.01;100.00;64805.59;5098698;28;20420;-65
2023/06/10 01:52:49;;;;;;;17.35;12.75;;;;;;;-145.01;100.00;64805.59;5101198;28;20048;-65
2023/06/10 01:55:16;;;;;;;14.68;11.68;;;;;;;-145.01;100.00;64805.59;5091352;28;20079;-65
2023/06/10 01:57:45;;;;;;;16.30;12.13;;;;;;;-145.01;100.00;64805.59;5095924;28;20048;-64
2023/06/10 02:00:14;;;;;;;19.35;13.75;;;;;;;-145.01;100.00;64805.59;5101990;28;20052;-64
2023/06/10 02:02:45;;;;;;;20.45;13.13;;;;;;;-145.01;100.00;64805.59;5103803;28;20054;-64
2023/06/10 02:05:13;;;;;;;19.10;13.25;;;;;;;-145.01;100.00;64805.59;5098533;28;20036;-65
2023/06/10 02:07:41;;;;;;;22.25;13.48;;;;;;;-145.01;100.00;64805.59;5089369;28;20048;-64
2023/06/10 02:10:09;;;;;;;20.80;13.70;;;;;;;-145.01;100.00;64805.59;5096001;28;20071;-64
2023/06/10 02:12:36;;;;;;;21.52;13.52;;;;;;;-145.01;100.00;64805.59;5096315;28;20039;-64
2023/06/10 02:15:06;;;;;;;20.60;12.85;;;;;;;-145.01;100.00;64805.59;5095288;28;20486;-64
2023/06/10 02:17:33;;;;;;;18.85;12.48;;;;;;;-145.01;100.00;64805.59;5095002;28;20418;-64
2023/06/10 02:20:06;;;;;;;19.77;13.60;;;;;;;-145.01;100.00;64805.59;5102896;28;20100;-64
2023/06/10 02:22:33;;;;;;;21.48;13.27;;;;;;;-145.01;100.00;64805.59;5097005;28;20138;-65
2023/06/10 02:25:01;;;;;;;18.42;13.02;;;;;;;-145.01;100.00;64805.59;5106567;28;20060;-64
2023/06/10 02:27:28;;;;;;;17.80;12.95;;;;;;;-145.01;100.00;64805.59;5100128;28;20035;-64
2023/06/10 02:29:56;;;;;;;21.77;12.95;;;;;;;-145.01;100.00;64805.59;5101069;28;20047;-64
2023/06/10 02:32:26;;;;;;;15.88;12.10;;;;;;;-145.01;100.00;64805.59;5098137;28;20035;-64
2023/06/10 02:34:54;;;;;;;15.38;12.05;;;;;;;-145.01;100.00;64805.59;5095168;28;20504;-64
2023/06/10 02:37:24;;;;;;;17.60;12.60;;;;;;;-145.01;100.00;64805.59;5097193;28;20036;-64
2023/06/10 02:39:51;;;;;;;15.80;11.25;;;;;;;-145.01;100.00;64805.59;5101062;28;20104;-64
2023/06/10 02:42:19;;;;;;;16.27;12.40;;;;;;;-145.01;100.00;64805.59;5085995;28;20128;-64
2023/06/10 02:44:47;;;;;;;16.88;12.20;;;;;;;-145.01;100.00;64805.59;5093240;28;20032;-64
2023/06/10 02:47:20;;;;;;;18.40;11.43;;;;;;;-145.01;100.00;64805.59;5116498;27;20431;-64
2023/06/10 02:49:49;;;;;;;17.50;12.00;;;;;;;-145.01;100.00;64805.59;5099987;28;20040;-64
2023/06/10 02:52:16;;;;;;;20.25;12.23;;;;;;;-145.01;100.00;64805.59;5092855;28;20127;-64
2023/06/10 02:54:45;;;;;;;16.02;11.25;;;;;;;-145.01;100.00;64805.59;5102757;28;20047;-64
2023/06/10 02:57:14;;;;;;;16.27;11.57;;;;;;;-145.01;100.00;64805.59;5093763;28;20122;-64
2023/06/10 02:59:42;;;;;;;17.42;11.57;;;;;;;-145.01;100.00;64805.59;5101185;28;20050;-64
2023/06/10 03:02:11;;;;;;;15.07;10.93;;;;;;;-145.01;100.00;64805.59;5094198;28;20048;-64
2023/06/10 03:04:45;;;;;;;19.10;12.10;;;;;;;-145.01;100.00;64805.59;5101226;28;20126;-64
2023/06/10 03:07:18;;;;;;;18.20;12.02;;;;;;;-145.01;100.00;64805.59;5097489;28;20047;-65
2023/06/10 03:09:46;;;;;;;18.00;11.50;;;;;;;-145.01;100.00;64805.59;5076733;28;20088;-65
2023/06/10 03:12:15;;;;;;;18.88;11.82;;;;;;;-145.01;100.00;64805.59;5095908;28;20044;-65
2023/06/10 03:14:47;;;;;;;15.82;11.70;;;;;;;-145.01;100.00;64805.59;5102338;28;20134;-65
2023/06/10 03:17:14;;;;;;;19.52;11.82;;;;;;;-145.01;100.00;64805.59;5102018;28;20120;-65
2023/06/10 03:19:44;;;;;;;17.77;13.07;;;;;;;-145.01;100.00;64805.59;5095908;28;20101;-65
2023/06/10 03:22:12;;;;;;;17.65;12.50;;;;;;;-145.01;100.00;64805.59;5102758;28;20558;-65
2023/06/10 03:24:50;;;;;;;14.90;12.02;;;;;;;-145.01;100.00;64805.59;5102428;28;20067;-64
2023/06/10 03:27:18;;;;;;;15.55;11.65;;;;;;;-145.01;100.00;64805.59;5091439;28;20059;-65
2023/06/10 03:29:49;;;;;;;17.40;12.02;;;;;;;-145.01;100.00;64805.59;5103808;28;20044;-64
2023/06/10 03:32:17;;;;;;;16.10;12.13;;;;;;;-145.01;100.00;64805.59;5084789;28;20052;-64
2023/06/10 03:34:47;;;;;;;16.02;11.57;;;;;;;-145.01;100.00;64805.59;5101526;28;20051;-64
2023/06/10 03:37:15;;;;;;;17.42;11.35;;;;;;;-145.01;100.00;64805.59;5098070;28;20477;-64
2023/06/10 03:39:44;;;;;;;15.80;10.60;;;;;;;-145.01;100.00;64805.59;5099040;28;20036;-64
2023/06/10 03:42:13;;;;;;;15.88;11.02;;;;;;;-145.01;100.00;64805.59;5092581;28;20488;-64
2023/06/10 03:44:41;;;;;;;16.80;10.25;;;;;;;-145.01;100.00;64805.59;5097877;28;20079;-64
2023/06/10 03:47:09;;;;;;;15.02;9.90;;;;;;;-145.01;100.00;64805.59;5097885;28;20097;-64
2023/06/10 03:49:40;;;;;;;12.90;9.52;;;;;;;-145.01;100.00;64805.59;5098535;28;20047;-63
2023/06/10 03:52:08;;;;;;;;;;;;;;;-145.01;100.00;64805.59;5095034;28;20047;-63
2023/06/10 03:54:35;;;;;;;13.32;10.00;;;;;;;-145.01;100.00;64805.59;5102435;28;19920;-63
2023/06/10 03:57:05;;;;;;;18.17;10.35;;;;;;;-145.01;100.00;64805.59;5103003;28;20101;-63
2023/06/10 03:59:34;;;;;;;15.02;9.63;;;;;;;-145.01;100.00;64805.59;5094505;28;20135;-63
2023/06/10 04:02:02;;;;;;;16.50;9.77;;;;;;;-145.01;100.00;64805.59;5100275;28;20044;-63
2023/06/10 04:04:29;;;;;;;11.85;8.98;;;;;;;-145.01;100.00;64805.59;5097100;28;20036;-63
2023/06/10 04:06:57;;;;;;;14.77;9.23;;;;;;;-145.01;100.00;64805.59;5105682;28;20121;-62
2023/06/10 04:09:25;;;;;;;11.88;8.40;;;;;;;-145.01;100.00;64805.59;5097938;28;20092;-63
2023/06/10 04:11:52;;;;;;;11.43;8.40;;;;;;;-145.01;100.00;64805.59;5105096;28;20048;-63
2023/06/10 04:14:21;;;;;;;16.77;9.52;;;;;;;-145.01;100.00;64805.59;5100865;28;20044;-63
2023/06/10 04:16:51;;;;;;;12.00;8.77;;;;;;;-145.01;100.00;64805.59;5095772;28;20485;-63
2023/06/10 04:19:19;;;;;;;12.52;8.82;;;;;;;-145.01;100.00;64805.59;5101512;28;20027;-63
2023/06/10 04:21:47;;;;;;;16.65;10.05;;;;;;;-145.01;100.00;64805.59;5098098;28;20071;-63
2023/06/10 04:24:15;;;;;;;13.50;8.77;;;;;;;-145.01;100.00;64805.59;5101027;28;20071;-63
2023/06/10 04:26:44;;;;;;;11.68;9.45;;;;;;;-145.01;100.00;64805.59;5102134;28;20055;-63
2023/06/10 04:29:13;;;;;;;12.48;8.73;;;;;;;-145.01;100.00;64805.59;5098150;28;20048;-63
2023/06/10 04:31:41;;;;;;;13.32;9.20;;;;;;;-145.01;100.00;64805.59;5092453;28;20040;-63
2023/06/10 04:34:11;;;;;;;13.25;8.88;;;;;;;-145.01;100.00;64805.59;5101824;28;20119;-63
2023/06/10 04:36:38;;;;;;;13.53;8.73;;;;;;;-145.01;100.00;64805.59;5101641;28;20039;-63
2023/06/10 04:39:06;;;;;;;12.68;8.68;;;;;;;-145.01;100.00;64805.59;5102175;28;20802;-63
2023/06/10 04:41:35;;;;;;;14.82;9.15;;;;;;;-145.01;100.00;64805.59;5098457;28;20399;-63
2023/06/10 04:44:02;;;;;;;12.55;8.85;;;;;;;-145.01;100.00;64805.59;5102463;28;20058;-63
2023/06/10 04:46:31;;;;;;;13.65;8.85;;;;;;;-145.01;100.00;64805.59;5096611;28;20440;-63
2023/06/10 04:48:59;;;;;;;11.40;8.57;;;;;;;-145.01;100.00;64805.59;5094751;28;20226;-63
2023/06/10 04:51:28;;;;;;;12.18;8.80;;;;;;;-145.01;100.00;64805.59;5095200;28;20040;-63
2023/06/10 04:53:56;;;;;;;14.30;9.20;;;;;;;-145.01;100.00;64805.59;5098486;28;20046;-63
2023/06/10 04:56:24;;;;;;;12.70;8.82;;;;;;;-145.01;100.00;64805.59;5097722;28;20072;-63
2023/06/10 04:58:51;;;;;;;12.05;8.80;;;;;;;-145.01;100.00;64805.59;5103268;28;20067;-62
2023/06/10 05:01:19;;;;;;;9.77;8.30;;;;;;;-145.01;100.00;64805.59;5097252;28;20047;-63
2023/06/10 05:03:47;;;;;;;14.30;8.93;;;;;;;-145.01;100.00;64805.59;5102212;28;20048;-63
2023/06/10 05:06:15;;;;;;;13.20;8.43;;;;;;;-145.01;100.00;64805.59;5099501;28;20490;-63
2023/06/10 05:08:44;;;;;;;10.18;7.97;;;;;;;-145.01;100.00;64805.59;5096699;28;20040;-63
2023/06/10 05:11:11;;;;;;;15.25;8.55;;;;;;;-145.01;100.00;64805.59;5104345;28;20139;-63
2023/06/10 05:13:39;;;;;;;16.52;8.40;;;;;;;-145.01;100.00;64805.59;5099426;28;20150;-63
2023/06/10 05:16:07;;;;;;;12.17;7.87;;;;;;;-145.01;100.00;64805.59;5101976;28;20058;-63
2023/06/10 05:18:35;;;;;;;15.27;8.40;;;;;;;-145.01;100.00;64805.59;5094592;28;20292;-63
2023/06/10 05:21:02;;;;;;;11.35;8.27;;;;;;;-145.01;100.00;64805.59;5106135;28;20047;-62
2023/06/10 05:23:30;;;;;;;13.68;8.05;;;;;;;-145.01;100.00;64805.59;5101227;28;20168;-63
2023/06/10 05:25:59;;;;;;;10.35;8.02;;;;;;;-145.01;100.00;64805.59;5099668;28;20078;-63
2023/06/10 05:28:26;;;;;;;13.18;8.65;;;;;;;-145.01;100.00;64805.59;5093284;28;20610;-63
2023/06/10 05:30:54;;;;;;;11.85;7.55;;;;;;;-145.01;100.00;64805.59;5101005;28;20457;-63
2023/06/10 05:33:21;;;;;;;15.73;8.73;;;;;;;-145.01;100.00;64805.59;5101674;28;20485;-63
2023/06/10 05:35:52;;;;;;;14.50;8.80;;;;;;;-145.01;100.00;64805.59;5101644;28;20509;-63
2023/06/10 05:38:19;;;;;;;13.30;8.50;;;;;;;-145.01;100.00;64805.59;5098289;28;20040;-63
2023/06/10 05:40:47;;;;;;;12.05;7.95;;;;;;;-145.01;100.00;64805.59;5097132;28;20071;-63
2023/06/10 05:43:17;;;;;;;10.13;8.13;;;;;;;-145.01;100.00;64805.59;5106499;28;20194;-63
2023/06/10 05:45:44;;;;;;;13.88;8.55;;;;;;;-145.01;100.00;64805.59;5103169;28;20042;-62
2023/06/10 05:48:12;;;;;;;15.43;8.52;;;;;;;-145.01;100.00;64805.59;5097101;28;20673;-63
2023/06/10 05:50:42;;;;;;;12.85;8.40;;;;;;;-145.01;100.00;64805.59;5096310;28;20048;-63
2023/06/10 05:53:15;;;;;;;11.05;8.52;;;;;;;-145.01;100.00;64805.59;5097520;28;20386;-63
2023/06/10 05:55:43;;;;;;;12.63;7.93;;;;;;;-145.01;100.00;64805.59;5101004;28;20075;-63
2023/06/10 05:58:12;;;;;;;17.80;8.45;;;;;;;-145.01;100.00;64805.59;5106699;28;20088;-63
2023/06/10 06:00:41;;;;;;;13.88;8.30;;;;;;;-145.01;100.00;64805.59;5097426;28;20032;-63
2023/06/10 06:03:08;;;;;;;12.45;8.48;;;;;;;-145.01;100.00;64805.59;5095519;28;20127;-63
2023/06/10 06:05:37;;;;;;;11.48;7.93;;;;;;;-145.01;100.00;64805.59;5102143;28;20040;-63
2023/06/10 06:08:05;;;;;;;13.10;7.90;;;;;;;-145.01;100.00;64805.59;5102216;28;20427;-63
2023/06/10 06:10:32;;;;;;;12.73;8.00;;;;;;;-145.01;100.00;64805.59;5102912;28;20419;-63
2023/06/10 06:12:59;;;;;;;12.10;7.75;;;;;;;-145.01;100.00;64805.59;5100253;28;20391;-63
2023/06/10 06:15:27;;;;;;;18.95;11.00;;;;;;;-145.01;100.00;64805.59;5092653;28;20470;-63
2023/06/10 06:17:56;;;;;;;16.23;8.17;;;;;;;-145.01;100.00;64805.59;5091383;28;20436;-63
2023/06/10 06:20:23;;;;;;;11.13;8.15;;;;;;;-145.01;100.00;64805.59;5101493;28;20113;-63
2023/06/10 06:22:51;;;;;;;11.73;7.85;;;;;;;-145.01;100.00;64805.59;5092175;28;20128;-63
2023/06/10 06:25:18;;;;;;;13.87;7.50;;;;;;;-145.01;100.00;64805.59;5101215;28;20051;-62
2023/06/10 06:27:46;;;;;;;17.33;7.93;;;;;;;-145.01;100.00;64805.59;5095443;28;20119;-62
2023/06/10 06:30:13;;;;;;;14.07;7.37;;;;;;;-145.01;100.00;64805.59;5100125;27;20117;-62
2023/06/10 06:32:41;;;;;;;13.43;6.60;;;;;;;-145.01;100.00;64805.59;5090307;28;20094;-62
2023/06/10 06:38:06;;;;;;;13.70;7.30;;;;;;;-145.01;100.00;64805.59;5094777;28;20058;-63
2023/06/10 06:40:36;;;;;;;12.63;7.88;;;;;;;-145.01;100.00;64805.59;5096197;28;20036;-62
2023/06/10 06:43:04;;;;;;;14.07;7.20;;;;;;;-145.01;100.00;64805.59;5098755;28;20154;-62
2023/06/10 06:45:49;;;;;;;11.27;7.10;;;;;;;-145.01;100.00;64805.59;5098657;28;20081;-62
2023/06/10 06:48:16;;;;;;;11.32;7.30;;;;;;;-145.01;100.00;64805.59;5095776;28;20490;-62
2023/06/10 06:50:46;;;;;;;10.98;7.22;;;;;;;-145.01;100.00;64805.59;5092836;28;20047;-62
2023/06/10 06:53:14;;;;;;;13.50;7.43;;;;;;;-145.01;100.00;64805.59;5095265;28;20067;-62
2023/06/10 06:55:41;;;;;;;11.43;7.72;;;;;;;-145.01;100.00;64805.59;5104650;28;20520;-62
2023/06/10 06:58:09;;;;;;;10.82;7.43;;;;;;;-145.01;100.00;64805.59;5095930;28;20097;-62
2023/06/10 07:00:36;;;;;;;11.30;7.30;;;;;;;-145.01;100.00;64805.59;5092256;28;20032;-62
2023/06/10 07:03:04;;;;;;;11.75;7.45;;;;;;;-145.01;100.00;64805.59;5090190;28;20047;-62
2023/06/10 07:05:31;;;;;;;17.38;7.22;;;;;;;-145.01;100.00;64805.59;5099077;28;20062;-62
2023/06/10 07:08:00;;;;;;;14.98;7.25;;;;;;;-145.01;100.00;64805.59;5093412;28;20513;-62
2023/06/10 07:10:27;;;;;;;12.02;7.88;;;;;;;-145.01;100.00;64805.59;5101294;28;20040;-62
2023/06/10 07:12:55;;;;;;;16.05;7.85;;;;;;;-145.01;100.00;64805.59;5095183;28;20051;-62
2023/06/10 07:15:22;;;;;;;12.70;6.88;;;;;;;-145.01;100.00;64805.59;5092279;28;20480;-62
2023/06/10 07:17:50;;;;;;;12.57;7.63;;;;;;;-145.01;100.00;64805.59;5099281;28;20481;-62
2023/06/10 07:20:18;;;;;;;11.45;7.20;;;;;;;-145.01;100.00;64805.59;5091949;28;20127;-62
2023/06/10 07:22:45;;;;;;;15.18;7.63;;;;;;;-145.01;100.00;64805.59;5096673;28;20454;-62
2023/06/10 07:25:15;;;;;;;11.07;7.17;;;;;;;-145.01;100.00;64805.59;5099093;28;20139;-62
2023/06/10 07:27:42;;;;;;;20.33;7.65;;;;;;;-145.01;100.00;64805.59;5092011;28;20359;-62
2023/06/10 07:30:10;;;;;;;18.10;7.53;;;;;;;-145.01;100.00;64805.59;5094998;28;20935;-62
2023/06/10 07:32:38;;;;;;;12.90;8.18;;;;;;;-145.01;100.00;64805.59;5103036;28;20042;-63
2023/06/10 07:35:08;;;;;;;12.77;8.30;;;;;;;-145.01;100.00;64805.59;5103799;28;20032;-62
2023/06/10 07:37:36;;;;;;;14.60;8.00;;;;;;;-145.01;100.00;64805.59;5095378;28;20482;-62
2023/06/10 07:40:04;;;;;;;12.57;7.82;;;;;;;-145.01;100.00;64805.59;5103317;28;20050;-62
2023/06/10 07:42:33;;;;;;;12.20;7.43;;;;;;;-145.01;100.00;64805.59;5100002;28;20044;-61
2023/06/10 07:45:00;;;;;;;14.27;8.43;;;;;;;-145.01;100.00;64805.59;5108814;28;20319;-62
2023/06/10 07:47:27;;;;;;;14.32;7.70;;;;;;;-145.01;100.00;64805.59;5094950;28;20036;-62
2023/06/10 07:49:55;;;;;;;10.43;7.88;;;;;;;-145.01;100.00;64805.59;5099759;28;20085;-62
2023/06/10 07:52:22;;;;;;;10.32;7.80;;;;;;;-145.01;100.00;64805.59;5106602;28;20039;-62
2023/06/10 07:54:50;;;;;;;14.82;8.40;;;;;;;-145.01;100.00;64805.59;5099833;28;20505;-61
2023/06/10 07:57:17;;;;;;;11.02;7.75;;;;;;;-145.01;100.00;64805.59;5097840;28;20570;-61
2023/06/10 07:59:46;;;;;;;12.63;8.68;;;;;;;-145.01;100.00;64805.59;5095619;28;20048;-63
2023/06/10 08:02:14;;;;;;;13.38;8.02;;;;;;;-145.01;100.00;64805.59;5101123;27;20052;-64
2023/06/10 08:04:41;;;;;;;13.30;8.07;;;;;;;-145.01;100.00;64805.59;5094868;28;20460;-62
2023/06/10 08:07:09;;;;;;;16.48;7.57;;;;;;;-145.01;100.00;64805.59;5100953;28;20122;-64
2023/06/10 08:09:36;;;;;;;12.20;7.72;;;;;;;-145.01;100.00;64805.59;5091678;28;20475;-63
2023/06/10 08:12:05;;;;;;;12.65;8.15;;;;;;;-145.01;100.00;64805.59;5096031;28;20109;-63
2023/06/10 08:14:36;;;;;;;10.20;7.65;;;;;;;-145.01;100.00;64805.59;5097368;28;20050;-63
2023/06/10 08:17:06;;;;;;;17.13;8.63;;;;;;;-145.01;100.00;64805.59;5096337;28;20051;-63
2023/06/10 08:19:35;;;;;;;15.95;8.63;;;;;;;-145.01;100.00;64805.59;5097530;28;20044;-64
2023/06/10 08:22:02;;;;;;;14.13;8.23;;;;;;;-145.01;100.00;64805.59;5098601;28;20040;-63
2023/06/10 08:24:29;;;;;;;16.58;9.43;;;;;;;-145.01;100.00;64805.59;5093227;27;20446;-63
2023/06/10 08:26:57;;;;;;;18.48;8.98;;;;;;;-145.01;100.00;64805.59;5101670;28;20393;-64
2023/06/10 08:29:25;;;;;;;17.95;8.55;;;;;;;-145.01;100.00;64805.59;5105871;28;20055;-63
2023/06/10 08:31:52;;;;;;;15.75;8.90;;;;;;;-145.01;100.00;64805.59;5104039;28;20132;-63
2023/06/10 08:34:21;;;;;;;14.23;8.38;;;;;;;-145.01;100.00;64805.59;5101755;28;20066;-64
2023/06/10 08:36:52;;;;;;;;;;;;;;;-145.01;100.00;64805.59;5102530;28;20072;-63
2023/06/10 08:39:20;;;;;;;12.35;8.05;;;;;;;-145.01;100.00;64805.59;5096656;28;19930;-63
2023/06/10 08:41:51;;;;;;;15.93;8.95;;;;;;;-145.01;100.00;64805.59;5097058;28;20040;-62
2023/06/10 08:44:21;;;;;;;14.63;9.00;;;;;;;-145.01;100.00;64805.59;5098727;28;20044;-62
2023/06/10 08:46:49;;;;;;;13.70;8.95;;;;;;;-145.01;100.00;64805.59;5102142;28;20040;-62
2023/06/10 08:49:20;;;;;;;13.80;8.70;;;;;;;-145.01;100.00;64805.59;5104060;28;20059;-62
2023/06/10 08:51:50;;;;;;;15.68;9.35;;;;;;;-145.01;100.00;64805.59;5104603;28;20124;-62
2023/06/10 08:54:19;;;;;;;15.48;8.98;;;;;;;-145.01;100.00;64805.59;5107444;28;20394;-61
2023/06/10 08:56:47;;;;;;;13.40;8.90;;;;;;;-145.01;100.00;64805.59;5107400;28;20046;-62
2023/06/10 08:59:16;;;;;;;16.98;9.38;;;;;;;-145.01;100.00;64805.59;5090949;28;20054;-61
2023/06/10 09:01:43;;;;;;;17.02;9.82;;;;;;;-145.01;100.00;64805.59;5101892;28;20529;-64
2023/06/10 09:04:11;;;;;;;16.15;9.40;;;;;;;-145.01;100.00;64805.59;5101445;28;20042;-63
2023/06/10 09:06:39;;;;;;;17.95;9.80;;;;;;;-145.01;100.00;64805.59;5098243;28;20048;-63
2023/06/10 09:09:08;;;;;;;15.75;10.05;;;;;;;-145.01;100.00;64805.59;5093296;28;20506;-63
2023/06/10 09:11:35;;;;;;;15.18;9.98;;;;;;;-145.01;100.00;64805.59;5099729;28;20085;-63
2023/06/10 09:14:03;;;;;;;15.60;10.40;;;;;;;-145.01;100.00;64805.59;5101478;28;20044;-63
2023/06/10 09:16:30;;;;;;;16.85;10.00;;;;;;;-145.01;100.00;64805.59;5100181;28;20086;-63
2023/06/10 09:18:58;;;;;;;18.55;9.90;;;;;;;-145.01;100.00;64805.59;5102730;28;20120;-63
2023/06/10 09:21:26;;;;;;;17.07;10.23;;;;;;;-145.01;100.00;64805.59;5104817;28;20059;-63
2023/06/10 09:23:53;;;;;;;13.32;9.70;;;;;;;-145.01;100.00;64805.59;5102080;28;20082;-63
2023/06/10 09:26:22;;;;;;;14.20;9.82;;;;;;;-145.01;100.00;64805.59;5095805;28;20465;-63
2023/06/10 09:28:50;;;;;;;15.57;10.60;;;;;;;-145.01;100.00;64805.59;5104840;28;20066;-63
2023/06/10 09:31:19;;;;;;;22.25;10.30;;;;;;;-145.01;100.00;64805.59;5100653;28;20384;-63
2023/06/10 09:33:46;;;;;;;17.45;9.95;;;;;;;-145.01;100.00;64805.59;5100206;28;20112;-63
2023/06/10 09:36:22;;;;;;;15.88;10.43;;;;;;;-145.01;100.00;64805.59;5107995;28;20052;-63
2023/06/10 09:38:51;;;;;;;21.95;11.07;;;;;;;-145.01;100.00;64805.59;5095637;28;20745;-63
2023/06/10 09:41:18;;;;;;;16.00;10.60;;;;;;;-145.01;100.00;64805.59;5097001;28;20035;-63
2023/06/10 09:43:48;;;;;;;19.55;11.35;;;;;;;-145.01;100.00;64805.59;5098537;28;20308;-63
2023/06/10 09:46:17;;;;;;;22.50;9.98;;;;;;;-145.01;100.00;64805.59;5096031;28;20051;-64
2023/06/10 09:48:45;;;;;;;16.90;10.57;;;;;;;-145.01;100.00;64805.59;5099245;28;20047;-63
2023/06/10 09:51:13;;;;;;;17.30;10.63;;;;;;;-145.01;100.00;64805.59;5103660;28;20051;-63
2023/06/10 09:53:40;;;;;;;15.10;10.75;;;;;;;-145.01;100.00;64805.59;5096861;28;20036;-63
2023/06/10 09:56:08;;;;;;;19.35;10.93;;;;;;;-145.01;100.00;64805.59;5103529;28;20051;-63
2023/06/10 09:58:37;;;;;;;20.45;11.35;;;;;;;-145.01;100.00;64805.59;5092587;28;20050;-64
2023/06/10 10:01:09;;;;;;;22.30;11.50;;;;;;;-145.01;100.00;64805.59;5101658;28;20054;-63
2023/06/10 10:03:45;;;;;;;18.20;9.60;;;;;;;-145.01;100.00;64805.59;5099723;28;20511;-64
2023/06/10 10:06:13;;;;;;;21.33;11.10;;;;;;;-145.01;100.00;64805.59;5100643;28;20553;-64
2023/06/10 10:08:40;;;;;;;16.45;10.02;;;;;;;-145.01;100.00;64805.59;5095452;28;20044;-62
2023/06/10 10:11:08;;;;;;;17.88;10.38;;;;;;;-145.01;100.00;64805.59;5097046;28;20050;-64
2023/06/10 10:13:36;;;;;;;17.90;10.32;;;;;;;-145.01;100.00;64805.59;5099150;28;20428;-64
2023/06/10 10:16:05;;;;;;;15.95;8.75;;;;;;;-145.01;100.00;64805.59;5096191;28;20459;-63
2023/06/10 10:18:35;;;;;;;16.23;8.90;;;;;;;-145.01;100.00;64805.59;5094304;28;20507;-62
2023/06/10 10:21:14;;;;;;;14.52;9.65;;;;;;;-145.01;100.00;64805.59;5100142;28;20152;-61
2023/06/10 10:23:44;;;;;;;15.20;10.40;;;;;;;-145.01;100.00;64805.59;5094852;28;20040;-64
2023/06/10 10:26:13;;;;;;;23.02;14.93;;;;;;;-145.01;100.00;64805.59;5096412;28;20059;-63
2023/06/10 10:28:43;;;;;;;23.55;11.63;;;;;;;-145.01;100.00;64805.59;5092368;28;20131;-62
2023/06/10 10:31:11;;;;;;;15.32;8.80;;;;;;;-145.01;100.00;64805.59;5100766;28;20054;-65
2023/06/10 10:33:47;;;;;;;16.37;9.40;;;;;;;-145.01;100.00;64805.59;5093792;28;20322;-64
2023/06/10 10:36:15;;;;;;;17.10;9.15;;;;;;;-145.01;100.00;64805.59;5100420;28;20128;-62
2023/06/10 10:38:43;;;;;;;15.07;8.93;;;;;;;-145.01;100.00;64805.59;5099997;28;20039;-62
2023/06/10 10:41:10;;;;;;;13.82;8.88;;;;;;;-145.01;100.00;64805.59;5101261;28;20097;-63
2023/06/10 10:43:38;;;;;;;21.48;8.88;;;;;;;-145.01;100.00;64805.59;5098261;28;20036;-63
2023/06/10 10:46:13;;;;;;;12.27;7.50;;;;;;;-145.01;100.00;64805.59;5097717;28;20071;-63
2023/06/10 10:48:41;;;;;;;15.82;8.23;;;;;;;-145.01;100.00;64805.59;5098037;28;20537;-62
2023/06/10 10:51:09;;;;;;;14.50;7.70;;;;;;;-145.01;100.00;64805.59;5100397;28;20379;-62
2023/06/10 10:53:38;;;;;;;16.30;8.63;;;;;;;-145.01;100.00;64805.59;5100945;28;20070;-63
2023/06/10 10:56:06;;;;;;;13.70;7.95;;;;;;;-145.01;100.00;64805.59;5098926;28;20035;-63
2023/06/10 10:58:34;;;;;;;10.90;7.18;;;;;;;-145.01;100.00;64805.59;5095474;28;20147;-65
2023/06/10 11:01:01;;;;;;;16.30;7.57;;;;;;;-145.01;100.00;64805.59;5093362;28;20043;-62
2023/06/10 11:03:32;;;;;;;13.23;7.95;;;;;;;-145.01;100.00;64805.59;5092421;28;20072;-62
2023/06/10 11:05:59;;;;;;;13.25;7.30;;;;;;;-145.01;100.00;64805.59;5099880;28;20109;-63
2023/06/10 11:08:52;;;;;;;13.45;7.05;;;;;;;-145.01;100.00;64805.59;5091640;28;20057;-62